Time;durP1;ratioP1;P1;durP2;ratioP2;P2;SDS_P1;SDS_P2;PMS_P1;PMS_P2;Temp;Humidity;BMP_temperature;BMP_pressure;BME280_temperature;BME280_humidity;BME280_pressure;Samples;Min_cycle;Max_cycle;Signal;HPM_P1;HPM_P2
2021/01/27 00:01:45;;;;;;;34.20;17.60;;;;;;;4.76;77.67;100506.44;8484282;33;20417;-70
2021/01/27 00:06:47;;;;;;;30.30;16.23;;;;;;;4.78;77.62;100488.72;8490793;33;20252;-70
2021/01/27 00:11:50;;;;;;;31.27;16.80;;;;;;;4.80;77.96;100477.16;8483936;33;20656;-71
2021/01/27 00:16:53;;;;;;;36.53;17.20;;;;;;;4.72;77.56;100463.38;8482054;33;21310;-71
2021/01/27 00:21:55;;;;;;;38.10;16.77;;;;;;;4.65;77.89;100469.84;8475887;33;20173;-71
2021/01/27 00:26:59;;;;;;;37.93;17.93;;;;;;;4.68;77.84;100467.06;8476857;33;20452;-70
2021/01/27 00:32:01;;;;;;;35.93;17.97;;;;;;;4.57;77.99;100474.56;8477069;33;20176;-71
2021/01/27 00:37:04;;;;;;;35.00;17.23;;;;;;;4.51;77.87;100477.47;8481046;33;20552;-71
2021/01/27 00:42:07;;;;;;;46.60;19.33;;;;;;;4.52;78.24;100461.53;8484871;33;20171;-70
2021/01/27 00:47:09;;;;;;;36.83;16.07;;;;;;;4.48;78.07;100452.00;8486903;33;20954;-71
2021/01/27 00:52:12;;;;;;;40.90;18.17;;;;;;;4.49;77.90;100456.34;8481005;33;20460;-71
2021/01/27 00:57:15;;;;;;;47.13;20.63;;;;;;;4.49;77.72;100458.16;8480334;33;20456;-71
2021/01/27 01:02:18;;;;;;;41.40;18.00;;;;;;;4.42;77.59;100455.75;8480905;33;23023;-71
2021/01/27 01:07:27;;;;;;;32.37;16.13;;;;;;;4.42;77.54;100454.91;8481834;33;20478;-71
2021/01/27 01:12:30;;;;;;;37.63;17.03;;;;;;;4.26;78.11;100452.00;8481548;33;20149;-72
2021/01/27 01:17:32;;;;;;;36.67;17.27;;;;;;;4.30;77.05;100447.44;8480499;33;20184;-72
2021/01/27 01:22:35;;;;;;;40.33;17.13;;;;;;;4.36;76.76;100449.84;8480992;33;20425;-71
2021/01/27 01:27:38;;;;;;;41.17;16.77;;;;;;;4.47;76.50;100439.72;8480139;33;20183;-71
2021/01/27 01:32:41;;;;;;;30.83;14.97;;;;;;;4.47;76.16;100434.41;8503662;33;20408;-71
2021/01/27 01:37:46;;;;;;;40.43;18.10;;;;;;;4.52;76.28;100428.91;8483966;33;20626;-71
2021/01/27 01:43:00;;;;;;;31.30;14.90;;;;;;;4.50;76.06;100436.06;8483587;33;20465;-72
2021/01/27 01:48:20;;;;;;;41.47;18.37;;;;;;;4.50;75.79;100439.59;8477556;33;20474;-72
2021/01/27 01:53:23;;;;;;;32.87;16.03;;;;;;;4.46;75.68;100430.88;8479319;33;20199;-72
2021/01/27 01:58:27;;;;;;;28.53;12.70;;;;;;;4.38;75.32;100427.69;8504223;33;20704;-71
2021/01/27 02:03:32;;;;;;;37.10;18.00;;;;;;;4.44;75.89;100419.53;8480678;33;20423;-71
2021/01/27 02:08:36;;;;;;;39.87;17.83;;;;;;;4.41;75.51;100422.28;8479027;33;20749;-71
2021/01/27 02:14:14;;;;;;;33.27;15.03;;;;;;;4.44;74.77;100416.00;8500386;33;20184;-71
2021/01/27 02:20:06;;;;;;;36.23;14.03;;;;;;;4.17;75.13;100397.69;8478921;33;20318;-72
2021/01/27 02:25:49;;;;;;;19.80;7.65;;;;;;;4.10;75.14;100409.44;8461471;33;21047;-72
2021/01/27 02:31:09;;;;;;;29.00;13.07;;;;;;;4.40;74.72;100393.25;8478158;33;21047;-71
2021/01/27 02:36:17;;;;;;;25.23;11.60;;;;;;;4.19;73.96;100382.59;8476935;33;22390;-71
2021/01/27 02:41:30;;;;;;;34.37;15.60;;;;;;;4.34;74.43;100375.84;8482138;33;20433;-71
2021/01/27 02:46:40;;;;;;;30.53;12.43;;;;;;;4.32;74.24;100367.13;8481389;33;20423;-71
2021/01/27 02:51:49;;;;;;;28.60;11.43;;;;;;;4.25;73.36;100365.66;8472297;33;20511;-71
2021/01/27 02:57:00;;;;;;;27.23;12.00;;;;;;;4.19;74.27;100357.97;8469037;33;20593;-71
2021/01/27 03:02:09;;;;;;;30.40;14.90;;;;;;;4.06;74.28;100352.31;8488886;33;20553;-71
2021/01/27 03:07:16;;;;;;;27.27;12.70;;;;;;;4.09;73.54;100338.97;8553574;33;20422;-72
2021/01/27 03:12:18;;;;;;;29.50;14.00;;;;;;;4.43;73.08;100332.28;8539265;33;20214;-72
2021/01/27 03:17:23;;;;;;;21.60;10.17;;;;;;;4.10;72.68;100332.75;8541490;33;20436;-71
2021/01/27 03:22:33;;;;;;;30.03;13.40;;;;;;;4.41;73.37;100332.31;8540474;33;22382;-72
2021/01/27 03:27:41;;;;;;;24.33;12.47;;;;;;;4.32;73.14;100332.72;8540801;33;20191;-71
2021/01/27 03:32:52;;;;;;;23.20;10.93;;;;;;;4.35;72.66;100329.94;8564503;33;20418;-72
2021/01/27 03:37:59;;;;;;;24.80;11.43;;;;;;;4.29;72.11;100324.94;8545053;33;20593;-71
2021/01/27 03:43:08;;;;;;;28.10;14.30;;;;;;;4.26;71.99;100318.91;8544011;33;21427;-71
2021/01/27 03:48:16;;;;;;;25.07;12.07;;;;;;;4.46;72.26;100319.78;8540488;33;20411;-72
2021/01/27 03:53:19;;;;;;;24.43;11.97;;;;;;;4.38;71.02;100311.31;8541345;33;20537;-72
2021/01/27 03:58:31;;;;;;;27.50;12.20;;;;;;;4.44;71.18;100310.19;8541231;33;20693;-72
2021/01/27 04:03:34;;;;;;;27.10;12.67;;;;;;;4.48;71.17;100301.19;8543272;33;20550;-72
2021/01/27 04:08:38;;;;;;;22.33;11.43;;;;;;;4.42;70.47;100310.25;8540751;33;20194;-72
2021/01/27 04:13:40;;;;;;;23.57;11.73;;;;;;;4.46;70.61;100309.19;8542413;33;20139;-72
2021/01/27 04:18:42;;;;;;;24.97;11.93;;;;;;;4.36;69.85;100307.00;8543397;33;20229;-72
2021/01/27 04:23:47;;;;;;;21.80;10.97;;;;;;;4.48;70.91;100298.56;8542539;33;20404;-71
2021/01/27 04:28:49;;;;;;;22.57;10.90;;;;;;;4.49;70.10;100296.75;8540993;33;20425;-72
2021/01/27 04:33:52;;;;;;;22.07;10.93;;;;;;;4.32;68.54;100295.69;8540748;33;20233;-71
2021/01/27 04:38:55;;;;;;;20.10;10.23;;;;;;;4.35;68.96;100277.06;8544494;33;20426;-72
2021/01/27 04:43:57;;;;;;;22.47;9.63;;;;;;;4.39;68.72;100269.88;8547159;33;20142;-72
2021/01/27 04:49:07;;;;;;;18.77;10.13;;;;;;;4.34;67.99;100266.56;8554114;33;20169;-72
2021/01/27 04:54:30;;;;;;;19.77;10.00;;;;;;;4.23;67.38;100267.88;8539751;33;20535;-71
2021/01/27 04:59:45;;;;;;;14.80;6.43;;;;;;;4.23;66.41;100269.66;8537719;33;21768;-71
2021/01/27 05:05:04;;;;;;;16.93;7.87;;;;;;;4.15;65.82;100266.47;8535699;33;20997;-72
2021/01/27 05:10:10;;;;;;;19.87;8.00;;;;;;;4.43;65.69;100260.84;8538629;33;21044;-72
2021/01/27 05:15:14;;;;;;;12.10;6.73;;;;;;;4.31;65.93;100264.03;8542473;33;20139;-72
2021/01/27 05:20:19;;;;;;;14.03;7.13;;;;;;;4.24;65.31;100258.13;8542258;33;22074;-72
2021/01/27 05:25:36;;;;;;;13.93;6.80;;;;;;;4.20;65.32;100246.00;8542629;33;20414;-72
2021/01/27 05:30:50;;;;;;;20.00;8.90;;;;;;;4.36;65.01;100241.75;8555643;33;20578;-72
2021/01/27 05:36:07;;;;;;;13.43;6.70;;;;;;;4.28;64.65;100233.28;8546017;33;21930;-72
2021/01/27 05:41:24;;;;;;;12.43;6.10;;;;;;;4.25;64.92;100225.50;8544871;33;20182;-71
2021/01/27 05:46:31;;;;;;;11.40;5.97;;;;;;;4.10;65.09;100228.78;8552912;33;21634;-71
2021/01/27 05:51:36;;;;;;;9.57;5.73;;;;;;;4.07;64.43;100227.13;8558721;33;20176;-71
2021/01/27 05:56:40;;;;;;;12.93;6.13;;;;;;;4.21;65.25;100227.38;8558942;33;20190;-72
2021/01/27 06:01:46;;;;;;;10.17;5.70;;;;;;;4.12;64.69;100227.78;8551185;33;20298;-72
2021/01/27 06:07:03;;;;;;;8.40;5.83;;;;;;;4.18;64.70;100227.53;8547398;33;20447;-72
2021/01/27 06:12:13;;;;;;;10.80;5.47;;;;;;;4.15;65.10;100213.59;8545527;33;20191;-72
2021/01/27 06:17:24;;;;;;;11.87;6.23;;;;;;;4.15;65.49;100206.50;8550634;33;20252;-71
2021/01/27 06:23:03;;;;;;;8.20;4.93;;;;;;;4.26;65.93;100191.97;8557921;33;20410;-71
2021/01/27 06:28:27;;;;;;;10.63;5.60;;;;;;;4.28;65.68;100187.44;8513406;33;20469;-72
2021/01/27 06:33:55;;;;;;;8.83;5.53;;;;;;;4.26;65.85;100190.19;8505387;33;20422;-71
2021/01/27 06:39:16;;;;;;;8.73;4.93;;;;;;;4.27;65.36;100177.81;8503029;33;20330;-71
2021/01/27 06:44:37;;;;;;;10.80;5.40;;;;;;;4.19;65.33;100181.63;8526455;33;20545;-70
2021/01/27 06:50:22;;;;;;;6.20;3.67;;;;;;;4.17;65.43;100165.00;8561616;33;20434;-70
2021/01/27 06:55:39;;;;;;;7.57;4.70;;;;;;;4.08;65.29;100157.44;8559207;33;20195;-70
2021/01/27 07:00:59;;;;;;;6.20;4.23;;;;;;;4.28;65.27;100145.13;8560695;33;20197;-70
2021/01/27 07:06:41;;;;;;;9.23;5.30;;;;;;;4.26;65.34;100133.78;8562741;33;20635;-70
2021/01/27 07:11:57;;;;;;;8.07;4.83;;;;;;;4.22;65.29;100118.06;8565567;33;21928;-70
2021/01/27 07:17:20;;;;;;;9.43;6.00;;;;;;;4.13;65.43;100118.44;8564404;33;20478;-70
2021/01/27 07:22:30;;;;;;;12.03;5.77;;;;;;;4.19;66.06;100094.38;8559109;33;21067;-70
2021/01/27 07:27:41;;;;;;;8.27;4.73;;;;;;;4.22;66.00;100086.34;8556876;33;20664;-70
2021/01/27 07:32:51;;;;;;;8.60;4.80;;;;;;;4.18;66.32;100084.75;8558815;33;20475;-70
2021/01/27 07:38:00;;;;;;;8.80;5.33;;;;;;;4.35;66.01;100078.69;8556819;33;20571;-70
2021/01/27 07:43:09;;;;;;;9.13;5.13;;;;;;;4.29;65.98;100080.75;8564814;33;21755;-70
2021/01/27 07:48:20;;;;;;;8.97;5.37;;;;;;;4.28;66.10;100065.78;8566929;33;20528;-70
2021/01/27 07:53:27;;;;;;;5.80;3.50;;;;;;;4.14;66.01;100066.44;8568645;33;20470;-70
2021/01/27 07:58:38;;;;;;;9.40;4.83;;;;;;;4.30;66.08;100058.66;8565542;33;20199;-70
2021/01/27 08:03:56;;;;;;;4.23;3.60;;;;;;;4.21;66.44;100062.59;8564280;33;20525;-70
2021/01/27 08:09:03;;;;;;;5.13;4.10;;;;;;;4.24;67.26;100065.94;8565043;33;20470;-70
2021/01/27 08:14:07;;;;;;;6.17;4.07;;;;;;;3.95;67.51;100091.06;8589566;33;20140;-70
2021/01/27 08:19:33;;;;;;;7.30;3.43;;;;;;;4.12;68.37;100078.88;8567116;33;20554;-70
2021/01/27 08:24:56;;;;;;;8.63;4.47;;;;;;;4.09;69.23;100073.75;8578798;33;20480;-70
2021/01/27 08:30:23;;;;;;;6.53;4.20;;;;;;;4.06;70.15;100079.13;8549529;33;20487;-70
2021/01/27 08:36:03;;;;;;;4.30;2.90;;;;;;;4.00;70.22;100082.91;8561658;33;20423;-70
2021/01/27 08:41:12;;;;;;;9.63;3.60;;;;;;;4.18;70.08;100076.81;8562257;33;20424;-70
2021/01/27 08:46:36;;;;;;;5.60;3.80;;;;;;;4.19;70.94;100078.50;8561076;33;20210;-70
2021/01/27 08:51:51;;;;;;;8.40;4.63;;;;;;;4.18;70.95;100062.72;8561847;33;21035;-70
2021/01/27 08:57:37;;;;;;;4.80;3.30;;;;;;;4.13;71.71;100067.38;8543543;33;20700;-71
2021/01/27 09:02:51;;;;;;;7.17;4.10;;;;;;;3.91;72.17;100063.03;8537369;33;20457;-70
2021/01/27 09:08:02;;;;;;;6.30;4.60;;;;;;;3.66;74.59;100065.06;8511527;33;20421;-70
2021/01/27 09:13:22;;;;;;;8.70;4.50;;;;;;;3.63;75.11;100065.19;8488425;33;21219;-70
2021/01/27 09:18:25;;;;;;;8.57;5.10;;;;;;;3.65;75.70;100061.56;8513645;33;20175;-70
2021/01/27 09:23:29;;;;;;;8.30;5.60;;;;;;;3.58;75.92;100059.25;8515984;33;20220;-70
2021/01/27 09:28:33;;;;;;;8.03;4.00;;;;;;;3.47;76.62;100065.84;8527371;33;20440;-70
2021/01/27 09:33:35;;;;;;;7.57;4.70;;;;;;;3.30;77.61;100061.28;8526960;33;20148;-71
2021/01/27 09:38:39;;;;;;;9.07;4.90;;;;;;;3.29;78.33;100063.97;8545142;33;20305;-70
2021/01/27 09:43:44;;;;;;;8.33;5.43;;;;;;;3.31;78.64;100054.19;8555537;33;20405;-71
2021/01/27 09:48:48;;;;;;;9.83;5.77;;;;;;;3.36;78.96;100062.78;8550698;33;20554;-71
2021/01/27 09:53:58;;;;;;;8.63;5.60;;;;;;;3.43;78.49;100068.66;8536498;33;20452;-71
2021/01/27 09:59:01;;;;;;;11.53;5.63;;;;;;;3.51;78.74;100062.16;8524212;33;20149;-71
2021/01/27 10:04:10;;;;;;;9.27;5.63;;;;;;;3.54;78.65;100058.53;8498872;33;20426;-71
2021/01/27 10:09:27;;;;;;;11.27;6.50;;;;;;;3.61;78.75;100054.69;8488287;33;20934;-71
2021/01/27 10:14:34;;;;;;;9.40;6.40;;;;;;;3.65;78.47;100050.09;8487700;33;20223;-71
2021/01/27 10:19:48;;;;;;;8.37;5.67;;;;;;;3.86;78.81;100037.75;8505949;33;21420;-72
2021/01/27 10:24:56;;;;;;;9.63;6.00;;;;;;;3.82;78.82;100030.91;8502566;33;21001;-71
2021/01/27 10:30:00;;;;;;;9.17;6.27;;;;;;;3.94;78.60;100020.59;8483464;33;20177;-73
2021/01/27 10:35:28;;;;;;;9.93;5.77;;;;;;;4.05;78.51;100011.34;8488246;33;20153;-72
2021/01/27 10:40:32;;;;;;;5.07;3.27;;;;;;;4.07;77.73;99991.00;8485678;33;20415;-71
2021/01/27 10:45:37;;;;;;;6.70;4.30;;;;;;;3.92;78.32;100009.28;8481351;33;20428;-71
2021/01/27 10:50:44;;;;;;;8.23;5.07;;;;;;;3.80;78.34;100012.44;8500755;33;20421;-71
2021/01/27 10:56:05;;;;;;;8.43;5.47;;;;;;;3.78;78.68;100014.28;8508723;33;20651;-71
2021/01/27 11:01:08;;;;;;;8.20;5.50;;;;;;;3.65;79.18;100018.41;8450485;33;20909;-71
2021/01/27 11:06:10;;;;;;;10.70;5.67;;;;;;;3.63;79.18;100007.06;8565636;33;20227;-71
2021/01/27 11:11:13;;;;;;;9.07;5.30;;;;;;;3.51;79.32;100011.97;8790196;33;20238;-71
2021/01/27 11:16:27;;;;;;;7.80;5.50;;;;;;;3.61;79.25;100001.00;8795771;33;20676;-71
2021/01/27 11:21:29;;;;;;;7.17;4.57;;;;;;;3.58;79.48;99991.41;8796526;33;20297;-71
2021/01/27 11:26:33;;;;;;;8.97;5.13;;;;;;;3.66;79.57;99984.00;8788252;33;20236;-71
2021/01/27 11:31:37;;;;;;;8.00;5.63;;;;;;;3.68;79.65;99987.44;8741284;33;20246;-71
2021/01/27 11:36:39;;;;;;;12.20;4.20;;;;;;;3.78;79.64;99969.38;8737708;33;20228;-71
2021/01/27 11:41:42;;;;;;;9.73;4.97;;;;;;;3.78;79.03;99966.72;8738031;33;20232;-72
2021/01/27 11:46:46;;;;;;;10.27;5.07;;;;;;;3.91;79.01;99961.75;8765291;33;20275;-72
2021/01/27 11:51:48;;;;;;;6.83;4.23;;;;;;;3.94;78.76;99945.75;8797380;33;20226;-72
2021/01/27 11:56:52;;;;;;;8.97;5.03;;;;;;;3.89;79.34;99958.31;8797212;33;20238;-73
2021/01/27 12:01:54;;;;;;;8.37;4.83;;;;;;;3.94;78.98;99938.66;8789175;33;20322;-72
2021/01/27 12:06:57;;;;;;;8.87;5.27;;;;;;;4.07;78.95;99930.19;8764907;33;20234;-74
2021/01/27 12:12:01;;;;;;;9.33;4.73;;;;;;;3.96;79.30;99922.75;8768156;33;20313;-71
2021/01/27 12:17:04;;;;;;;6.53;4.37;;;;;;;3.84;79.05;99926.84;8766982;33;20243;-71
2021/01/27 12:22:07;;;;;;;6.40;4.80;;;;;;;4.05;79.19;99914.38;8769263;33;20329;-73
2021/01/27 12:27:10;;;;;;;10.77;5.23;;;;;;;4.04;79.27;99904.75;8767228;33;20696;-73
2021/01/27 12:32:12;;;;;;;8.37;5.27;;;;;;;4.06;79.59;99912.59;8766152;33;21997;-72
2021/01/27 12:37:15;;;;;;;7.37;4.57;;;;;;;4.03;79.75;99903.00;8737377;33;21408;-73
2021/01/27 12:42:19;;;;;;;10.10;4.77;;;;;;;4.03;80.34;99907.44;8737718;33;20306;-71
2021/01/27 12:47:22;;;;;;;5.93;4.50;;;;;;;4.10;80.04;99903.59;8736642;33;20754;-70
2021/01/27 12:52:25;;;;;;;6.60;5.50;;;;;;;4.27;79.52;99889.56;8736822;33;20236;-71
2021/01/27 12:57:28;;;;;;;9.33;5.57;;;;;;;4.15;79.67;99886.59;8736051;33;20247;-73
2021/01/27 13:02:30;;;;;;;6.83;4.87;;;;;;;4.34;79.42;99878.59;8736682;33;20228;-71
2021/01/27 13:07:33;;;;;;;8.67;5.07;;;;;;;4.34;79.54;99869.81;8762320;33;20235;-70
2021/01/27 13:12:37;;;;;;;6.90;4.70;;;;;;;4.23;79.28;99862.41;8764947;33;20378;-70
2021/01/27 13:17:40;;;;;;;8.43;5.50;;;;;;;4.43;79.29;99849.03;8740009;33;20235;-71
2021/01/27 13:22:43;;;;;;;8.27;5.37;;;;;;;4.26;79.31;99851.69;8761610;33;20232;-71
2021/01/27 13:27:46;;;;;;;10.17;5.87;;;;;;;4.37;79.20;99862.59;8762752;33;20266;-71
2021/01/27 13:32:50;;;;;;;6.27;4.73;;;;;;;4.48;79.02;99859.41;8767420;33;20232;-71
2021/01/27 13:38:03;;;;;;;9.93;6.03;;;;;;;4.30;79.55;99853.22;8785828;33;20231;-71
2021/01/27 13:43:06;;;;;;;12.27;7.53;;;;;;;4.58;79.23;99852.72;8765110;33;20227;-71
2021/01/27 13:48:10;;;;;;;9.50;6.17;;;;;;;4.37;79.87;99859.94;8765002;33;20234;-71
2021/01/27 13:53:13;;;;;;;8.70;5.60;;;;;;;4.52;79.58;99858.31;8735904;33;20736;-70
2021/01/27 13:58:17;;;;;;;9.73;5.80;;;;;;;4.42;80.08;99851.78;8770225;33;20227;-71
2021/01/27 14:03:19;;;;;;;10.00;6.93;;;;;;;4.34;80.33;99843.38;8816191;33;20235;-71
2021/01/27 14:08:22;;;;;;;8.23;5.10;;;;;;;4.35;80.35;99853.88;8793311;33;20219;-71
2021/01/27 14:13:25;;;;;;;10.60;6.73;;;;;;;4.52;80.27;99844.22;8789831;33;20319;-71
2021/01/27 14:18:28;;;;;;;11.27;6.20;;;;;;;4.65;79.92;99840.03;8792235;33;20740;-71
2021/01/27 14:23:30;;;;;;;10.60;6.57;;;;;;;4.44;80.73;99847.25;8792462;33;20317;-71
2021/01/27 14:28:34;;;;;;;11.63;6.77;;;;;;;4.31;81.34;99851.47;8794352;33;20235;-71
2021/01/27 14:33:36;;;;;;;12.13;7.23;;;;;;;4.24;81.71;99841.16;8769509;33;22027;-71
2021/01/27 14:38:39;;;;;;;10.50;7.20;;;;;;;4.52;81.03;99855.66;8764873;33;20280;-72
2021/01/27 14:43:44;;;;;;;9.83;5.20;;;;;;;4.37;81.61;99849.38;8785801;33;20265;-71
2021/01/27 14:48:47;;;;;;;11.13;6.30;;;;;;;4.43;81.67;99845.56;8797139;33;20365;-72
2021/01/27 14:53:49;;;;;;;16.60;9.23;;;;;;;4.59;81.33;99829.78;8797615;33;20243;-72
2021/01/27 14:58:52;;;;;;;12.07;6.97;;;;;;;4.41;81.74;99835.03;8772701;33;20232;-71
2021/01/27 15:03:54;;;;;;;13.43;7.70;;;;;;;4.55;81.68;99826.44;8766566;33;20342;-70
2021/01/27 15:08:57;;;;;;;13.40;7.43;;;;;;;4.33;82.49;99828.41;8767147;33;21569;-72
2021/01/27 15:14:00;;;;;;;9.47;5.80;;;;;;;4.55;81.69;99821.13;8758013;33;21847;-71
2021/01/27 15:19:02;;;;;;;11.90;6.10;;;;;;;4.63;81.51;99823.38;8767818;33;20234;-71
2021/01/27 15:24:06;;;;;;;14.53;7.80;;;;;;;4.71;81.48;99837.06;8776431;33;21636;-71
2021/01/27 15:29:10;;;;;;;15.57;7.47;;;;;;;4.74;81.69;99828.13;8775574;33;20228;-71
2021/01/27 15:34:12;;;;;;;13.97;7.63;;;;;;;4.48;82.64;99838.25;8766941;33;20828;-72
2021/01/27 15:39:15;;;;;;;18.73;8.63;;;;;;;4.68;82.22;99829.28;8764819;33;20327;-71
2021/01/27 15:44:20;;;;;;;21.20;9.03;;;;;;;4.79;82.09;99839.31;8765138;33;20232;-70
2021/01/27 15:49:23;;;;;;;13.43;7.23;;;;;;;4.77;82.16;99839.41;8767612;33;20227;-72
2021/01/27 15:54:25;;;;;;;16.77;8.40;;;;;;;4.88;81.79;99842.38;8767723;33;20253;-71
2021/01/27 15:59:28;;;;;;;14.43;7.03;;;;;;;4.78;82.25;99846.41;8796490;33;20744;-71
2021/01/27 16:04:31;;;;;;;19.17;8.43;;;;;;;4.76;82.83;99850.91;8796100;33;20235;-72
2021/01/27 16:09:34;;;;;;;18.60;7.60;;;;;;;4.81;82.35;99856.84;8818319;33;20223;-72
2021/01/27 16:14:38;;;;;;;23.07;10.83;;;;;;;4.77;83.59;99849.13;8793428;33;21144;-71
2021/01/27 16:19:40;;;;;;;19.20;8.90;;;;;;;4.92;82.56;99858.94;8795619;33;20270;-72
2021/01/27 16:24:42;;;;;;;14.57;6.13;;;;;;;4.81;82.49;99855.97;8793751;33;20231;-71
2021/01/27 16:29:50;;;;;;;18.60;8.97;;;;;;;4.95;82.88;99847.34;8794584;33;20288;-71
2021/01/27 16:34:52;;;;;;;22.63;10.20;;;;;;;5.02;82.74;99848.69;8798708;33;20234;-72
2021/01/27 16:39:54;;;;;;;23.90;10.63;;;;;;;4.97;82.71;99841.03;8796227;33;20334;-72
2021/01/27 16:44:58;;;;;;;18.53;9.27;;;;;;;5.10;82.62;99850.03;8794495;33;20239;-72
2021/01/27 16:50:07;;;;;;;23.83;10.77;;;;;;;5.24;82.20;99844.00;8792540;33;20234;-73
2021/01/27 16:55:13;;;;;;;20.03;10.57;;;;;;;5.06;82.85;99835.22;8793976;33;20301;-72
2021/01/27 17:00:21;;;;;;;20.17;10.63;;;;;;;5.11;83.07;99843.78;8793357;33;20250;-72
2021/01/27 17:05:28;;;;;;;24.60;10.83;;;;;;;5.17;83.09;99839.97;8793669;33;20329;-72
2021/01/27 17:10:30;;;;;;;20.43;9.67;;;;;;;5.15;83.32;99848.91;8793993;33;20221;-72
2021/01/27 17:15:34;;;;;;;30.63;11.17;;;;;;;5.19;83.28;99846.03;8792961;33;20241;-73
2021/01/27 17:20:38;;;;;;;19.33;8.60;;;;;;;5.19;83.44;99848.69;8793281;33;20263;-73
2021/01/27 17:25:40;;;;;;;29.57;12.10;;;;;;;5.28;83.39;99853.47;8793329;33;20218;-72
2021/01/27 17:30:44;;;;;;;23.17;10.37;;;;;;;5.28;83.17;99848.19;8792626;33;22037;-72
2021/01/27 17:35:47;;;;;;;22.27;10.10;;;;;;;5.22;83.84;99847.66;8762550;33;20282;-72
2021/01/27 17:40:49;;;;;;;16.50;7.07;;;;;;;5.28;83.58;99853.47;8735214;33;20243;-72
2021/01/27 17:45:53;;;;;;;24.90;11.33;;;;;;;5.44;83.26;99850.88;8734791;33;20732;-72
2021/01/27 17:50:55;;;;;;;27.93;11.23;;;;;;;5.42;83.70;99851.88;8735053;33;20240;-72
2021/01/27 17:56:02;;;;;;;28.33;12.83;;;;;;;5.43;83.68;99849.16;8733003;33;20223;-72
2021/01/27 18:01:07;;;;;;;20.07;8.83;;;;;;;5.19;84.54;99856.63;8757489;33;20267;-72
2021/01/27 18:06:10;;;;;;;29.90;13.33;;;;;;;5.41;84.38;99855.50;8756790;33;20223;-72
2021/01/27 18:11:13;;;;;;;32.73;13.83;;;;;;;5.39;84.41;99858.22;8738058;33;21956;-73
2021/01/27 18:16:17;;;;;;;31.67;13.87;;;;;;;5.60;83.80;99869.44;8738923;33;20314;-73
2021/01/27 18:21:22;;;;;;;31.20;12.57;;;;;;;5.54;84.05;99865.34;8760011;33;20240;-73
2021/01/27 18:26:24;;;;;;;21.67;9.23;;;;;;;5.54;84.24;99856.53;8760519;33;20314;-72
2021/01/27 18:31:28;;;;;;;32.63;13.60;;;;;;;5.71;83.87;99847.66;8751990;33;20253;-72
2021/01/27 18:36:31;;;;;;;28.90;11.90;;;;;;;5.65;84.02;99851.50;8771805;33;21396;-72
2021/01/27 18:41:33;;;;;;;22.40;10.57;;;;;;;5.79;83.60;99856.03;8790852;33;20281;-72
2021/01/27 18:46:37;;;;;;;28.73;11.40;;;;;;;5.80;83.53;99861.25;8766694;33;20305;-73
2021/01/27 18:51:39;;;;;;;24.40;10.17;;;;;;;5.85;83.57;99862.81;8740515;33;21748;-72
2021/01/27 18:56:42;;;;;;;27.60;13.03;;;;;;;5.96;83.38;99863.94;8738771;33;20231;-73
2021/01/27 19:01:45;;;;;;;25.90;10.30;;;;;;;5.88;83.37;99862.63;8739872;33;20235;-73
2021/01/27 19:06:48;;;;;;;32.00;11.73;;;;;;;6.04;83.26;99852.06;8766906;33;20992;-73
2021/01/27 19:11:51;;;;;;;25.67;12.20;;;;;;;6.11;83.19;99845.44;8759653;33;20354;-74
2021/01/27 19:16:54;;;;;;;27.60;11.93;;;;;;;5.97;83.45;99843.56;8747623;33;20309;-73
2021/01/27 19:21:57;;;;;;;28.13;12.07;;;;;;;6.18;83.07;99838.84;8793305;33;20227;-73
2021/01/27 19:26:59;;;;;;;29.42;12.07;;;;;;;6.22;83.06;99829.75;8796009;33;20512;-73
2021/01/27 19:32:03;;;;;;;28.23;13.10;;;;;;;6.24;83.06;99844.66;8796218;33;20262;-73
2021/01/27 19:37:05;;;;;;;22.70;9.97;;;;;;;6.10;83.49;99839.28;8797628;33;20231;-73
2021/01/27 19:42:08;;;;;;;26.17;11.37;;;;;;;6.00;84.03;99843.41;8820089;33;20223;-73
2021/01/27 19:47:12;;;;;;;28.50;11.47;;;;;;;6.07;83.74;99842.13;8738714;33;20236;-72
2021/01/27 19:52:15;;;;;;;26.87;10.53;;;;;;;6.15;84.10;99841.69;8754896;33;20309;-72
2021/01/27 19:57:17;;;;;;;31.70;13.57;;;;;;;6.15;84.36;99842.53;8765079;33;20760;-72
2021/01/27 20:02:20;;;;;;;31.40;11.93;;;;;;;6.27;83.99;99826.84;8768200;33;20269;-72
2021/01/27 20:07:23;;;;;;;31.67;12.83;;;;;;;6.32;84.21;99825.63;8789360;33;20620;-72
2021/01/27 20:12:25;;;;;;;19.60;8.30;;;;;;;6.17;84.66;99834.47;8796572;33;20365;-73
2021/01/27 20:17:29;;;;;;;30.00;11.83;;;;;;;6.29;84.41;99820.50;8787959;33;20224;-73
2021/01/27 20:22:31;;;;;;;27.23;11.37;;;;;;;6.41;84.13;99810.97;8795785;33;20940;-73
2021/01/27 20:27:35;;;;;;;29.07;12.53;;;;;;;6.30;84.87;99813.41;8796798;33;20256;-73
2021/01/27 20:32:39;;;;;;;44.97;16.47;;;;;;;6.40;84.44;99814.59;8796385;33;20293;-73
2021/01/27 20:37:43;;;;;;;38.63;13.47;;;;;;;6.27;85.16;99810.94;8801237;33;20223;-75
2021/01/27 20:42:45;;;;;;;24.23;9.07;;;;;;;6.21;85.74;99815.66;8798102;33;20353;-72
2021/01/27 20:47:50;;;;;;;40.07;15.80;;;;;;;6.48;84.97;99814.16;8817558;33;20753;-72
2021/01/27 20:52:53;;;;;;;25.23;10.23;;;;;;;6.32;85.25;99820.34;8796084;33;20227;-73
2021/01/27 20:57:57;;;;;;;43.70;18.30;;;;;;;6.36;85.54;99827.19;8796181;33;20227;-72
2021/01/27 21:03:05;;;;;;;35.73;15.27;;;;;;;6.45;85.07;99825.78;8797187;33;20263;-72
2021/01/27 21:08:09;;;;;;;54.63;19.55;;;;;;;6.39;85.34;99831.44;8796554;33;20235;-73
2021/01/27 21:13:14;;;;;;;47.77;16.90;;;;;;;6.33;85.73;99830.00;8781910;33;20744;-71
2021/01/27 21:18:20;;;;;;;50.70;19.10;;;;;;;6.59;85.03;99830.28;8766551;33;20261;-70
2021/01/27 21:23:24;;;;;;;59.00;21.27;;;;;;;6.58;85.13;99834.75;8751952;33;20231;-73
2021/01/27 21:28:26;;;;;;;36.67;13.90;;;;;;;6.51;85.43;99833.38;8743462;33;20219;-72
2021/01/27 21:33:30;;;;;;;51.03;17.83;;;;;;;6.52;85.34;99835.09;8779838;33;20449;-73
2021/01/27 21:38:34;;;;;;;47.07;15.37;;;;;;;6.75;84.72;99824.91;8794353;33;20285;-73
2021/01/27 21:43:38;;;;;;;50.78;19.10;;;;;;;6.72;85.03;99822.44;8796213;33;20342;-71
2021/01/27 21:48:41;;;;;;;51.63;21.17;;;;;;;6.85;84.92;99828.72;8798888;33;20282;-71
2021/01/27 21:53:43;;;;;;;56.40;19.65;;;;;;;6.69;84.97;99839.38;8800659;33;20732;-71
2021/01/27 21:58:46;;;;;;;53.67;18.25;;;;;;;6.68;85.25;99832.38;8799693;33;20751;-71
2021/01/27 22:03:49;;;;;;;54.07;19.53;;;;;;;6.71;85.41;99841.97;8798872;33;20231;-71
2021/01/27 22:08:51;;;;;;;53.67;17.90;;;;;;;6.84;84.80;99829.66;8799468;33;20379;-72
2021/01/27 22:13:54;;;;;;;50.57;15.27;;;;;;;6.61;85.38;99828.38;8802229;33;20230;-73
2021/01/27 22:18:57;;;;;;;28.27;11.90;;;;;;;6.60;85.30;99831.97;8800661;33;20223;-73
2021/01/27 22:23:59;;;;;;;47.70;17.20;;;;;;;6.86;85.17;99836.59;8801534;33;20231;-72
2021/01/27 22:29:02;;;;;;;37.67;14.17;;;;;;;6.84;85.07;99838.47;8798929;33;20995;-73
2021/01/27 22:34:06;;;;;;;43.72;16.55;;;;;;;6.77;85.62;99833.63;8799409;33;20223;-72
2021/01/27 22:39:08;;;;;;;46.22;18.33;;;;;;;6.87;84.94;99843.59;8797949;33;20770;-73
2021/01/27 22:44:11;;;;;;;49.33;16.75;;;;;;;7.01;84.69;99832.16;8800961;33;20226;-73
2021/01/27 22:49:15;;;;;;;34.60;13.15;;;;;;;6.94;84.84;99829.94;8799483;33;20227;-72
2021/01/27 22:54:17;;;;;;;41.00;13.73;;;;;;;6.94;84.19;99830.84;8798211;33;20231;-72
2021/01/27 22:59:20;;;;;;;44.87;15.40;;;;;;;7.05;84.52;99828.38;8798613;33;20227;-72
2021/01/27 23:04:23;;;;;;;43.70;14.73;;;;;;;7.03;84.62;99834.72;8798067;33;20237;-72
2021/01/27 23:09:25;;;;;;;37.40;13.40;;;;;;;6.94;85.08;99821.97;8798185;33;21511;-73
2021/01/27 23:14:28;;;;;;;34.35;11.35;;;;;;;7.13;84.52;99819.94;8798511;33;20227;-73
2021/01/27 23:19:31;;;;;;;50.45;16.58;;;;;;;7.04;85.29;99815.16;8797530;33;20265;-73
2021/01/27 23:24:33;;;;;;;36.78;11.70;;;;;;;6.85;85.34;99824.25;8797025;33;20235;-73
2021/01/27 23:29:36;;;;;;;40.35;15.35;;;;;;;7.11;84.89;99825.34;8796096;33;20736;-73
2021/01/27 23:34:39;;;;;;;34.60;12.40;;;;;;;7.01;84.66;99823.34;8796521;33;20778;-73
2021/01/27 23:39:41;;;;;;;52.53;17.15;;;;;;;7.18;84.40;99801.88;8796622;33;20647;-72
2021/01/27 23:44:44;;;;;;;41.30;13.75;;;;;;;7.03;84.90;99798.38;8795118;33;20242;-72
2021/01/27 23:49:48;;;;;;;45.53;17.70;;;;;;;7.21;84.51;99806.16;8796570;33;20306;-73
2021/01/27 23:54:50;;;;;;;45.20;15.70;;;;;;;7.10;84.97;99791.75;8794813;33;20301;-73